sensor_id;sensor_type;location;lat;lon;timestamp;P1;durP1;ratioP1;P2;durP2;ratioP2
46006;SDS011;31738;50.188;8.524;2023-03-15T00:01:33;10.98;;;2.65;;
46006;SDS011;31738;50.188;8.524;2023-03-15T00:03:58;16.00;;;2.90;;
46006;SDS011;31738;50.188;8.524;2023-03-15T00:06:23;23.23;;;2.42;;
46006;SDS011;31738;50.188;8.524;2023-03-15T00:08:49;15.60;;;2.17;;
46006;SDS011;31738;50.188;8.524;2023-03-15T00:11:16;18.05;;;2.55;;
46006;SDS011;31738;50.188;8.524;2023-03-15T00:13:42;18.85;;;2.17;;
46006;SDS011;31738;50.188;8.524;2023-03-15T00:16:09;11.48;;;2.05;;
46006;SDS011;31738;50.188;8.524;2023-03-15T00:18:36;13.52;;;2.30;;
46006;SDS011;31738;50.188;8.524;2023-03-15T00:21:01;10.32;;;2.15;;
46006;SDS011;31738;50.188;8.524;2023-03-15T00:23:27;13.95;;;2.58;;
46006;SDS011;31738;50.188;8.524;2023-03-15T00:25:53;7.10;;;2.17;;
46006;SDS011;31738;50.188;8.524;2023-03-15T00:28:19;7.50;;;1.90;;
46006;SDS011;31738;50.188;8.524;2023-03-15T00:30:45;8.30;;;1.98;;
46006;SDS011;31738;50.188;8.524;2023-03-15T00:33:12;9.63;;;2.42;;
46006;SDS011;31738;50.188;8.524;2023-03-15T00:35:42;12.75;;;2.17;;
46006;SDS011;31738;50.188;8.524;2023-03-15T00:38:09;16.67;;;2.42;;
46006;SDS011;31738;50.188;8.524;2023-03-15T00:40:35;17.27;;;2.38;;
46006;SDS011;31738;50.188;8.524;2023-03-15T00:43:02;7.00;;;2.03;;
46006;SDS011;31738;50.188;8.524;2023-03-15T00:45:27;14.30;;;2.40;;
46006;SDS011;31738;50.188;8.524;2023-03-15T00:47:53;11.52;;;2.03;;
46006;SDS011;31738;50.188;8.524;2023-03-15T00:50:20;11.18;;;2.13;;
46006;SDS011;31738;50.188;8.524;2023-03-15T00:52:47;14.77;;;2.88;;
46006;SDS011;31738;50.188;8.524;2023-03-15T00:55:13;15.27;;;2.33;;
46006;SDS011;31738;50.188;8.524;2023-03-15T00:57:41;12.77;;;2.30;;
46006;SDS011;31738;50.188;8.524;2023-03-15T01:00:09;15.07;;;2.83;;
46006;SDS011;31738;50.188;8.524;2023-03-15T01:02:38;9.98;;;2.00;;
46006;SDS011;31738;50.188;8.524;2023-03-15T01:05:04;10.68;;;2.10;;
46006;SDS011;31738;50.188;8.524;2023-03-15T01:07:31;17.95;;;2.53;;
46006;SDS011;31738;50.188;8.524;2023-03-15T01:10:04;17.75;;;2.58;;
46006;SDS011;31738;50.188;8.524;2023-03-15T01:12:35;13.75;;;2.00;;
46006;SDS011;31738;50.188;8.524;2023-03-15T01:15:02;14.65;;;1.90;;
46006;SDS011;31738;50.188;8.524;2023-03-15T01:17:31;13.02;;;2.55;;
46006;SDS011;31738;50.188;8.524;2023-03-15T01:19:57;10.55;;;1.92;;
46006;SDS011;31738;50.188;8.524;2023-03-15T01:22:23;12.73;;;2.25;;
46006;SDS011;31738;50.188;8.524;2023-03-15T01:24:49;17.23;;;2.50;;
46006;SDS011;31738;50.188;8.524;2023-03-15T01:27:17;14.70;;;2.45;;
46006;SDS011;31738;50.188;8.524;2023-03-15T01:29:42;16.42;;;2.70;;
46006;SDS011;31738;50.188;8.524;2023-03-15T01:32:09;13.07;;;3.05;;
46006;SDS011;31738;50.188;8.524;2023-03-15T01:34:34;20.58;;;2.78;;
46006;SDS011;31738;50.188;8.524;2023-03-15T01:37:00;13.52;;;1.98;;
46006;SDS011;31738;50.188;8.524;2023-03-15T01:39:32;12.07;;;2.30;;
46006;SDS011;31738;50.188;8.524;2023-03-15T01:41:57;10.05;;;2.20;;
46006;SDS011;31738;50.188;8.524;2023-03-15T01:44:23;18.27;;;2.40;;
46006;SDS011;31738;50.188;8.524;2023-03-15T01:47:09;11.38;;;2.17;;
46006;SDS011;31738;50.188;8.524;2023-03-15T01:49:35;13.50;;;2.95;;
46006;SDS011;31738;50.188;8.524;2023-03-15T01:52:07;10.13;;;2.20;;
46006;SDS011;31738;50.188;8.524;2023-03-15T01:57:50;13.57;;;2.00;;
46006;SDS011;31738;50.188;8.524;2023-03-15T02:00:22;14.43;;;2.22;;
46006;SDS011;31738;50.188;8.524;2023-03-15T02:02:54;16.63;;;2.40;;
46006;SDS011;31738;50.188;8.524;2023-03-15T02:05:28;17.90;;;2.25;;
46006;SDS011;31738;50.188;8.524;2023-03-15T02:08:00;14.13;;;2.58;;
46006;SDS011;31738;50.188;8.524;2023-03-15T02:10:33;10.88;;;2.35;;
46006;SDS011;31738;50.188;8.524;2023-03-15T02:13:02;17.50;;;2.03;;
46006;SDS011;31738;50.188;8.524;2023-03-15T02:15:28;10.10;;;2.13;;
46006;SDS011;31738;50.188;8.524;2023-03-15T02:17:55;11.52;;;2.20;;
46006;SDS011;31738;50.188;8.524;2023-03-15T02:20:32;12.15;;;2.15;;
46006;SDS011;31738;50.188;8.524;2023-03-15T02:23:13;12.30;;;2.35;;
46006;SDS011;31738;50.188;8.524;2023-03-15T02:28:38;9.68;;;2.65;;
46006;SDS011;31738;50.188;8.524;2023-03-15T02:31:05;13.02;;;2.22;;
46006;SDS011;31738;50.188;8.524;2023-03-15T02:33:32;15.10;;;2.25;;
46006;SDS011;31738;50.188;8.524;2023-03-15T02:36:21;12.95;;;2.30;;
46006;SDS011;31738;50.188;8.524;2023-03-15T02:38:49;14.90;;;2.30;;
46006;SDS011;31738;50.188;8.524;2023-03-15T02:41:18;12.75;;;2.45;;
46006;SDS011;31738;50.188;8.524;2023-03-15T02:43:48;13.35;;;2.17;;
46006;SDS011;31738;50.188;8.524;2023-03-15T02:46:18;10.30;;;2.13;;
46006;SDS011;31738;50.188;8.524;2023-03-15T02:48:44;10.48;;;2.30;;
46006;SDS011;31738;50.188;8.524;2023-03-15T02:51:18;19.50;;;2.45;;
46006;SDS011;31738;50.188;8.524;2023-03-15T02:53:46;13.90;;;2.42;;
46006;SDS011;31738;50.188;8.524;2023-03-15T02:56:11;7.28;;;1.83;;
46006;SDS011;31738;50.188;8.524;2023-03-15T02:58:39;9.43;;;2.00;;
46006;SDS011;31738;50.188;8.524;2023-03-15T03:01:05;14.48;;;2.08;;
46006;SDS011;31738;50.188;8.524;2023-03-15T03:03:30;11.60;;;2.03;;
46006;SDS011;31738;50.188;8.524;2023-03-15T03:05:59;11.90;;;2.70;;
46006;SDS011;31738;50.188;8.524;2023-03-15T03:08:25;15.75;;;2.30;;
46006;SDS011;31738;50.188;8.524;2023-03-15T03:10:51;15.52;;;2.40;;
46006;SDS011;31738;50.188;8.524;2023-03-15T03:13:17;8.95;;;2.10;;
46006;SDS011;31738;50.188;8.524;2023-03-15T03:15:43;14.27;;;2.15;;
46006;SDS011;31738;50.188;8.524;2023-03-15T03:18:11;8.55;;;2.20;;
46006;SDS011;31738;50.188;8.524;2023-03-15T03:20:36;14.10;;;2.65;;
46006;SDS011;31738;50.188;8.524;2023-03-15T03:23:02;11.60;;;2.50;;
46006;SDS011;31738;50.188;8.524;2023-03-15T03:25:31;15.52;;;3.00;;
46006;SDS011;31738;50.188;8.524;2023-03-15T03:27:57;9.63;;;2.17;;
46006;SDS011;31738;50.188;8.524;2023-03-15T03:30:26;9.43;;;2.05;;
46006;SDS011;31738;50.188;8.524;2023-03-15T03:32:51;14.15;;;2.92;;
46006;SDS011;31738;50.188;8.524;2023-03-15T03:35:19;10.32;;;2.58;;
46006;SDS011;31738;50.188;8.524;2023-03-15T03:37:44;15.45;;;2.30;;
46006;SDS011;31738;50.188;8.524;2023-03-15T03:40:22;18.98;;;2.92;;
46006;SDS011;31738;50.188;8.524;2023-03-15T03:42:48;13.38;;;2.50;;
46006;SDS011;31738;50.188;8.524;2023-03-15T03:45:17;15.20;;;2.42;;
46006;SDS011;31738;50.188;8.524;2023-03-15T03:47:44;10.65;;;2.22;;
46006;SDS011;31738;50.188;8.524;2023-03-15T03:50:10;9.07;;;2.50;;
46006;SDS011;31738;50.188;8.524;2023-03-15T03:52:36;15.98;;;2.90;;
46006;SDS011;31738;50.188;8.524;2023-03-15T03:55:05;13.60;;;2.30;;
46006;SDS011;31738;50.188;8.524;2023-03-15T03:57:31;16.98;;;2.47;;
46006;SDS011;31738;50.188;8.524;2023-03-15T03:59:57;11.20;;;2.55;;
46006;SDS011;31738;50.188;8.524;2023-03-15T04:02:23;16.15;;;2.47;;
46006;SDS011;31738;50.188;8.524;2023-03-15T04:04:57;13.90;;;2.75;;
46006;SDS011;31738;50.188;8.524;2023-03-15T04:07:24;15.82;;;2.60;;
46006;SDS011;31738;50.188;8.524;2023-03-15T04:09:49;10.65;;;2.70;;
46006;SDS011;31738;50.188;8.524;2023-03-15T04:12:16;16.15;;;2.80;;
46006;SDS011;31738;50.188;8.524;2023-03-15T04:14:44;14.88;;;2.83;;
46006;SDS011;31738;50.188;8.524;2023-03-15T04:17:10;14.18;;;2.75;;
46006;SDS011;31738;50.188;8.524;2023-03-15T04:19:36;14.13;;;2.63;;
46006;SDS011;31738;50.188;8.524;2023-03-15T04:22:03;18.05;;;4.18;;
46006;SDS011;31738;50.188;8.524;2023-03-15T04:24:41;12.70;;;3.00;;
46006;SDS011;31738;50.188;8.524;2023-03-15T04:27:14;17.38;;;3.40;;
46006;SDS011;31738;50.188;8.524;2023-03-15T04:30:02;19.50;;;3.20;;
46006;SDS011;31738;50.188;8.524;2023-03-15T04:32:48;20.40;;;3.40;;
46006;SDS011;31738;50.188;8.524;2023-03-15T04:35:37;9.60;;;3.20;;
46006;SDS011;31738;50.188;8.524;2023-03-15T04:38:22;14.10;;;3.30;;
46006;SDS011;31738;50.188;8.524;2023-03-15T04:41:17;13.70;;;3.20;;
46006;SDS011;31738;50.188;8.524;2023-03-15T04:44:00;13.65;;;3.33;;
46006;SDS011;31738;50.188;8.524;2023-03-15T04:46:43;13.63;;;3.58;;
46006;SDS011;31738;50.188;8.524;2023-03-15T04:49:29;17.70;;;3.38;;
46006;SDS011;31738;50.188;8.524;2023-03-15T04:52:09;25.95;;;4.03;;
46006;SDS011;31738;50.188;8.524;2023-03-15T04:54:35;17.77;;;3.67;;
46006;SDS011;31738;50.188;8.524;2023-03-15T04:57:13;20.30;;;4.55;;
46006;SDS011;31738;50.188;8.524;2023-03-15T04:59:47;19.05;;;4.32;;
46006;SDS011;31738;50.188;8.524;2023-03-15T05:02:36;18.20;;;4.97;;
46006;SDS011;31738;50.188;8.524;2023-03-15T05:05:25;18.95;;;4.43;;
46006;SDS011;31738;50.188;8.524;2023-03-15T05:08:15;17.45;;;4.30;;
46006;SDS011;31738;50.188;8.524;2023-03-15T05:10:51;15.35;;;4.70;;
46006;SDS011;31738;50.188;8.524;2023-03-15T05:13:36;16.77;;;5.10;;
46006;SDS011;31738;50.188;8.524;2023-03-15T05:16:20;10.55;;;4.35;;
46006;SDS011;31738;50.188;8.524;2023-03-15T05:19:04;19.70;;;5.07;;
46006;SDS011;31738;50.188;8.524;2023-03-15T05:21:41;19.50;;;4.40;;
46006;SDS011;31738;50.188;8.524;2023-03-15T05:24:21;15.90;;;4.10;;
46006;SDS011;31738;50.188;8.524;2023-03-15T05:26:56;17.67;;;4.50;;
46006;SDS011;31738;50.188;8.524;2023-03-15T05:29:45;11.93;;;4.18;;
46006;SDS011;31738;50.188;8.524;2023-03-15T05:32:34;23.42;;;5.03;;
46006;SDS011;31738;50.188;8.524;2023-03-15T05:35:34;21.90;;;5.40;;
46006;SDS011;31738;50.188;8.524;2023-03-15T05:38:16;23.38;;;5.43;;
46006;SDS011;31738;50.188;8.524;2023-03-15T05:41:08;23.25;;;5.10;;
46006;SDS011;31738;50.188;8.524;2023-03-15T05:43:36;19.98;;;5.93;;
46006;SDS011;31738;50.188;8.524;2023-03-15T05:46:22;16.98;;;5.18;;
46006;SDS011;31738;50.188;8.524;2023-03-15T05:49:06;22.33;;;6.43;;
46006;SDS011;31738;50.188;8.524;2023-03-15T05:51:38;19.70;;;5.55;;
46006;SDS011;31738;50.188;8.524;2023-03-15T05:54:12;18.93;;;5.67;;
46006;SDS011;31738;50.188;8.524;2023-03-15T05:56:57;17.13;;;5.53;;
46006;SDS011;31738;50.188;8.524;2023-03-15T05:59:33;20.13;;;5.70;;
46006;SDS011;31738;50.188;8.524;2023-03-15T06:02:04;19.38;;;6.05;;
46006;SDS011;31738;50.188;8.524;2023-03-15T06:04:38;18.38;;;6.07;;
46006;SDS011;31738;50.188;8.524;2023-03-15T06:07:04;20.73;;;5.95;;
46006;SDS011;31738;50.188;8.524;2023-03-15T06:09:31;19.50;;;5.82;;
46006;SDS011;31738;50.188;8.524;2023-03-15T06:11:57;18.08;;;5.80;;
46006;SDS011;31738;50.188;8.524;2023-03-15T06:14:24;17.63;;;6.78;;
46006;SDS011;31738;50.188;8.524;2023-03-15T06:16:54;18.13;;;6.25;;
46006;SDS011;31738;50.188;8.524;2023-03-15T06:19:21;19.25;;;6.20;;
46006;SDS011;31738;50.188;8.524;2023-03-15T06:21:47;25.23;;;6.22;;
46006;SDS011;31738;50.188;8.524;2023-03-15T06:24:20;17.02;;;6.10;;
46006;SDS011;31738;50.188;8.524;2023-03-15T06:26:46;17.08;;;6.95;;
46006;SDS011;31738;50.188;8.524;2023-03-15T06:29:12;19.10;;;7.72;;
46006;SDS011;31738;50.188;8.524;2023-03-15T06:31:38;21.70;;;7.60;;
46006;SDS011;31738;50.188;8.524;2023-03-15T06:34:08;21.58;;;7.90;;
46006;SDS011;31738;50.188;8.524;2023-03-15T06:36:34;22.63;;;8.25;;
46006;SDS011;31738;50.188;8.524;2023-03-15T06:39:01;21.52;;;7.65;;
46006;SDS011;31738;50.188;8.524;2023-03-15T06:41:26;21.85;;;8.40;;
46006;SDS011;31738;50.188;8.524;2023-03-15T06:43:59;22.40;;;8.30;;
46006;SDS011;31738;50.188;8.524;2023-03-15T06:46:26;20.23;;;8.05;;
46006;SDS011;31738;50.188;8.524;2023-03-15T06:48:51;23.55;;;6.63;;
46006;SDS011;31738;50.188;8.524;2023-03-15T06:51:19;21.13;;;7.63;;
46006;SDS011;31738;50.188;8.524;2023-03-15T06:53:44;19.40;;;6.93;;
46006;SDS011;31738;50.188;8.524;2023-03-15T06:56:10;24.85;;;7.28;;
46006;SDS011;31738;50.188;8.524;2023-03-15T06:58:36;18.10;;;7.07;;
46006;SDS011;31738;50.188;8.524;2023-03-15T07:01:01;25.05;;;7.53;;
46006;SDS011;31738;50.188;8.524;2023-03-15T07:03:27;29.13;;;8.13;;
46006;SDS011;31738;50.188;8.524;2023-03-15T07:05:52;22.35;;;6.85;;
46006;SDS011;31738;50.188;8.524;2023-03-15T07:08:19;22.13;;;7.00;;
46006;SDS011;31738;50.188;8.524;2023-03-15T07:10:45;22.00;;;7.57;;
46006;SDS011;31738;50.188;8.524;2023-03-15T07:13:12;24.42;;;7.25;;
46006;SDS011;31738;50.188;8.524;2023-03-15T07:15:38;20.95;;;7.63;;
46006;SDS011;31738;50.188;8.524;2023-03-15T07:18:05;13.18;;;6.78;;
46006;SDS011;31738;50.188;8.524;2023-03-15T07:20:31;24.30;;;7.68;;
46006;SDS011;31738;50.188;8.524;2023-03-15T07:22:56;17.77;;;7.70;;
46006;SDS011;31738;50.188;8.524;2023-03-15T07:25:22;15.73;;;6.75;;
46006;SDS011;31738;50.188;8.524;2023-03-15T07:27:50;16.33;;;6.35;;
46006;SDS011;31738;50.188;8.524;2023-03-15T07:30:16;17.30;;;5.60;;
46006;SDS011;31738;50.188;8.524;2023-03-15T07:32:42;17.52;;;5.47;;
46006;SDS011;31738;50.188;8.524;2023-03-15T07:35:08;16.73;;;5.28;;
46006;SDS011;31738;50.188;8.524;2023-03-15T07:37:34;15.77;;;5.20;;
46006;SDS011;31738;50.188;8.524;2023-03-15T07:39:59;14.10;;;4.45;;
46006;SDS011;31738;50.188;8.524;2023-03-15T07:42:36;15.07;;;5.13;;
46006;SDS011;31738;50.188;8.524;2023-03-15T07:45:02;15.00;;;5.30;;
46006;SDS011;31738;50.188;8.524;2023-03-15T07:47:29;15.20;;;5.15;;
46006;SDS011;31738;50.188;8.524;2023-03-15T07:49:55;17.83;;;4.90;;
46006;SDS011;31738;50.188;8.524;2023-03-15T07:52:20;19.50;;;5.88;;
46006;SDS011;31738;50.188;8.524;2023-03-15T07:54:47;16.92;;;6.00;;
46006;SDS011;31738;50.188;8.524;2023-03-15T07:57:12;30.02;;;5.88;;
46006;SDS011;31738;50.188;8.524;2023-03-15T07:59:37;17.50;;;5.78;;
46006;SDS011;31738;50.188;8.524;2023-03-15T08:02:03;17.15;;;6.13;;
46006;SDS011;31738;50.188;8.524;2023-03-15T08:04:29;18.92;;;6.32;;
46006;SDS011;31738;50.188;8.524;2023-03-15T08:06:55;23.60;;;6.25;;
46006;SDS011;31738;50.188;8.524;2023-03-15T08:09:20;16.13;;;5.60;;
46006;SDS011;31738;50.188;8.524;2023-03-15T08:11:46;16.33;;;6.68;;
46006;SDS011;31738;50.188;8.524;2023-03-15T08:14:11;14.02;;;5.88;;
46006;SDS011;31738;50.188;8.524;2023-03-15T08:16:37;16.35;;;6.47;;
46006;SDS011;31738;50.188;8.524;2023-03-15T08:19:02;20.50;;;6.53;;
46006;SDS011;31738;50.188;8.524;2023-03-15T08:21:28;16.65;;;6.07;;
46006;SDS011;31738;50.188;8.524;2023-03-15T08:23:53;19.23;;;6.70;;
46006;SDS011;31738;50.188;8.524;2023-03-15T08:26:19;18.08;;;6.68;;
46006;SDS011;31738;50.188;8.524;2023-03-15T08:28:44;22.17;;;7.45;;
46006;SDS011;31738;50.188;8.524;2023-03-15T08:31:10;15.80;;;6.93;;
46006;SDS011;31738;50.188;8.524;2023-03-15T08:33:38;21.60;;;7.65;;
46006;SDS011;31738;50.188;8.524;2023-03-15T08:36:04;18.65;;;7.25;;
46006;SDS011;31738;50.188;8.524;2023-03-15T08:38:30;18.50;;;8.02;;
46006;SDS011;31738;50.188;8.524;2023-03-15T08:40:56;20.38;;;8.45;;
46006;SDS011;31738;50.188;8.524;2023-03-15T08:43:22;18.70;;;8.10;;
46006;SDS011;31738;50.188;8.524;2023-03-15T08:45:47;27.35;;;8.68;;
46006;SDS011;31738;50.188;8.524;2023-03-15T08:48:14;21.95;;;8.38;;
46006;SDS011;31738;50.188;8.524;2023-03-15T08:50:40;22.42;;;8.27;;
46006;SDS011;31738;50.188;8.524;2023-03-15T08:53:05;18.52;;;7.90;;
46006;SDS011;31738;50.188;8.524;2023-03-15T08:55:32;15.43;;;7.32;;
46006;SDS011;31738;50.188;8.524;2023-03-15T08:57:57;16.45;;;7.10;;
46006;SDS011;31738;50.188;8.524;2023-03-15T09:00:25;11.95;;;6.40;;
46006;SDS011;31738;50.188;8.524;2023-03-15T09:02:51;7.07;;;3.80;;
46006;SDS011;31738;50.188;8.524;2023-03-15T09:05:18;9.52;;;4.20;;
46006;SDS011;31738;50.188;8.524;2023-03-15T09:07:44;6.75;;;4.45;;
46006;SDS011;31738;50.188;8.524;2023-03-15T09:10:10;11.95;;;5.05;;
46006;SDS011;31738;50.188;8.524;2023-03-15T09:12:41;6.32;;;3.95;;
46006;SDS011;31738;50.188;8.524;2023-03-15T09:15:08;8.52;;;4.38;;
46006;SDS011;31738;50.188;8.524;2023-03-15T09:17:33;4.97;;;3.50;;
46006;SDS011;31738;50.188;8.524;2023-03-15T09:19:59;7.28;;;3.28;;
46006;SDS011;31738;50.188;8.524;2023-03-15T09:22:24;5.38;;;2.95;;
46006;SDS011;31738;50.188;8.524;2023-03-15T09:24:50;6.15;;;3.17;;
46006;SDS011;31738;50.188;8.524;2023-03-15T09:27:16;5.88;;;3.50;;
46006;SDS011;31738;50.188;8.524;2023-03-15T09:29:42;5.50;;;3.53;;
46006;SDS011;31738;50.188;8.524;2023-03-15T09:32:07;6.88;;;3.40;;
46006;SDS011;31738;50.188;8.524;2023-03-15T09:34:34;8.00;;;3.67;;
46006;SDS011;31738;50.188;8.524;2023-03-15T09:36:59;6.78;;;3.45;;
46006;SDS011;31738;50.188;8.524;2023-03-15T09:39:25;6.47;;;3.00;;
46006;SDS011;31738;50.188;8.524;2023-03-15T09:41:54;5.97;;;3.08;;
46006;SDS011;31738;50.188;8.524;2023-03-15T09:50:57;6.13;;;3.50;;
46006;SDS011;31738;50.188;8.524;2023-03-15T09:53:02;6.20;;;3.90;;
46006;SDS011;31738;50.188;8.524;2023-03-15T09:55:35;6.50;;;4.60;;
46006;SDS011;31738;50.188;8.524;2023-03-15T09:58:02;7.15;;;4.57;;
46006;SDS011;31738;50.188;8.524;2023-03-15T10:00:34;5.60;;;4.20;;
46006;SDS011;31738;50.188;8.524;2023-03-15T10:03:02;7.55;;;4.07;;
46006;SDS011;31738;50.188;8.524;2023-03-15T10:05:36;5.30;;;3.88;;
46006;SDS011;31738;50.188;8.524;2023-03-15T10:08:09;5.68;;;3.70;;
46006;SDS011;31738;50.188;8.524;2023-03-15T10:10:36;6.50;;;4.18;;
46006;SDS011;31738;50.188;8.524;2023-03-15T10:13:12;5.28;;;3.65;;
46006;SDS011;31738;50.188;8.524;2023-03-15T10:16:03;5.88;;;3.85;;
46006;SDS011;31738;50.188;8.524;2023-03-15T10:21:12;4.78;;;2.70;;
46006;SDS011;31738;50.188;8.524;2023-03-15T10:23:55;3.97;;;2.90;;
46006;SDS011;31738;50.188;8.524;2023-03-15T10:26:26;3.08;;;2.25;;
46006;SDS011;31738;50.188;8.524;2023-03-15T10:28:56;2.33;;;2.00;;
46006;SDS011;31738;50.188;8.524;2023-03-15T10:31:26;3.88;;;2.50;;
46006;SDS011;31738;50.188;8.524;2023-03-15T10:33:59;2.72;;;2.03;;
46006;SDS011;31738;50.188;8.524;2023-03-15T10:36:24;3.28;;;2.47;;
46006;SDS011;31738;50.188;8.524;2023-03-15T10:38:50;3.50;;;2.53;;
46006;SDS011;31738;50.188;8.524;2023-03-15T10:44:25;2.70;;;2.10;;
46006;SDS011;31738;50.188;8.524;2023-03-15T10:46:59;1.73;;;1.50;;
46006;SDS011;31738;50.188;8.524;2023-03-15T10:49:31;2.90;;;1.75;;
46006;SDS011;31738;50.188;8.524;2023-03-15T10:52:01;2.85;;;1.92;;
46006;SDS011;31738;50.188;8.524;2023-03-15T10:54:28;4.82;;;2.20;;
46006;SDS011;31738;50.188;8.524;2023-03-15T10:57:01;2.58;;;2.13;;
46006;SDS011;31738;50.188;8.524;2023-03-15T10:59:37;2.38;;;1.83;;
46006;SDS011;31738;50.188;8.524;2023-03-15T11:02:20;2.85;;;1.85;;
46006;SDS011;31738;50.188;8.524;2023-03-15T11:04:49;3.25;;;2.13;;
46006;SDS011;31738;50.188;8.524;2023-03-15T11:07:23;6.07;;;2.70;;
46006;SDS011;31738;50.188;8.524;2023-03-15T11:09:59;3.90;;;2.75;;
46006;SDS011;31738;50.188;8.524;2023-03-15T11:12:27;3.40;;;2.42;;
46006;SDS011;31738;50.188;8.524;2023-03-15T11:14:56;3.08;;;2.35;;
46006;SDS011;31738;50.188;8.524;2023-03-15T11:17:29;3.40;;;2.33;;
46006;SDS011;31738;50.188;8.524;2023-03-15T11:19:58;4.10;;;2.25;;
46006;SDS011;31738;50.188;8.524;2023-03-15T11:22:37;2.75;;;2.22;;
46006;SDS011;31738;50.188;8.524;2023-03-15T11:25:04;5.15;;;2.65;;
46006;SDS011;31738;50.188;8.524;2023-03-15T11:27:35;3.58;;;2.50;;
46006;SDS011;31738;50.188;8.524;2023-03-15T11:30:02;3.97;;;2.65;;
46006;SDS011;31738;50.188;8.524;2023-03-15T11:32:29;3.03;;;2.45;;
46006;SDS011;31738;50.188;8.524;2023-03-15T11:37:28;6.22;;;2.60;;
46006;SDS011;31738;50.188;8.524;2023-03-15T11:40:14;3.17;;;2.40;;
46006;SDS011;31738;50.188;8.524;2023-03-15T11:42:48;3.05;;;2.45;;
46006;SDS011;31738;50.188;8.524;2023-03-15T11:45:30;3.33;;;2.10;;
46006;SDS011;31738;50.188;8.524;2023-03-15T11:50:58;3.60;;;2.22;;
46006;SDS011;31738;50.188;8.524;2023-03-15T11:53:26;4.07;;;2.58;;
46006;SDS011;31738;50.188;8.524;2023-03-15T11:56:01;7.00;;;2.42;;
46006;SDS011;31738;50.188;8.524;2023-03-15T11:58:46;3.47;;;2.40;;
46006;SDS011;31738;50.188;8.524;2023-03-15T12:01:35;5.20;;;2.55;;
46006;SDS011;31738;50.188;8.524;2023-03-15T12:06:52;4.22;;;2.60;;
46006;SDS011;31738;50.188;8.524;2023-03-15T12:12:00;4.03;;;2.55;;
46006;SDS011;31738;50.188;8.524;2023-03-15T12:19:58;5.13;;;2.72;;
46006;SDS011;31738;50.188;8.524;2023-03-15T12:22:25;4.05;;;2.53;;
46006;SDS011;31738;50.188;8.524;2023-03-15T12:24:57;5.20;;;2.60;;
46006;SDS011;31738;50.188;8.524;2023-03-15T12:27:32;5.53;;;2.72;;
46006;SDS011;31738;50.188;8.524;2023-03-15T12:30:01;5.55;;;3.00;;
46006;SDS011;31738;50.188;8.524;2023-03-15T12:32:28;6.45;;;2.30;;
46006;SDS011;31738;50.188;8.524;2023-03-15T12:34:55;8.10;;;2.70;;
46006;SDS011;31738;50.188;8.524;2023-03-15T12:37:24;4.50;;;2.53;;
46006;SDS011;31738;50.188;8.524;2023-03-15T12:39:59;4.82;;;2.25;;
46006;SDS011;31738;50.188;8.524;2023-03-15T12:53:20;2.78;;;2.13;;
46006;SDS011;31738;50.188;8.524;2023-03-15T12:55:56;3.13;;;2.17;;
46006;SDS011;31738;50.188;8.524;2023-03-15T12:58:42;5.40;;;2.80;;
46006;SDS011;31738;50.188;8.524;2023-03-15T13:01:11;5.82;;;2.50;;
46006;SDS011;31738;50.188;8.524;2023-03-15T13:03:42;3.17;;;2.17;;
46006;SDS011;31738;50.188;8.524;2023-03-15T13:28:42;5.22;;;2.08;;
46006;SDS011;31738;50.188;8.524;2023-03-15T13:31:19;3.72;;;1.90;;
46006;SDS011;31738;50.188;8.524;2023-03-15T13:33:48;3.17;;;1.98;;
46006;SDS011;31738;50.188;8.524;2023-03-15T13:36:23;5.80;;;2.67;;
46006;SDS011;31738;50.188;8.524;2023-03-15T13:38:52;7.38;;;2.20;;
46006;SDS011;31738;50.188;8.524;2023-03-15T13:41:20;4.95;;;2.40;;
46006;SDS011;31738;50.188;8.524;2023-03-15T13:43:56;5.30;;;2.42;;
46006;SDS011;31738;50.188;8.524;2023-03-15T13:46:23;3.70;;;2.53;;
46006;SDS011;31738;50.188;8.524;2023-03-15T13:48:52;4.72;;;2.38;;
46006;SDS011;31738;50.188;8.524;2023-03-15T13:51:34;4.45;;;2.80;;
46006;SDS011;31738;50.188;8.524;2023-03-15T13:54:06;6.50;;;2.78;;
46006;SDS011;31738;50.188;8.524;2023-03-15T13:59:46;8.55;;;3.22;;
46006;SDS011;31738;50.188;8.524;2023-03-15T14:02:18;6.43;;;3.28;;
46006;SDS011;31738;50.188;8.524;2023-03-15T14:05:01;5.47;;;3.10;;
46006;SDS011;31738;50.188;8.524;2023-03-15T14:07:34;5.05;;;3.30;;
46006;SDS011;31738;50.188;8.524;2023-03-15T14:10:05;7.05;;;3.08;;
46006;SDS011;31738;50.188;8.524;2023-03-15T14:12:47;5.10;;;2.75;;
46006;SDS011;31738;50.188;8.524;2023-03-15T14:15:18;3.72;;;2.42;;
46006;SDS011;31738;50.188;8.524;2023-03-15T14:20:43;3.88;;;2.00;;
46006;SDS011;31738;50.188;8.524;2023-03-15T14:23:13;4.70;;;1.90;;
46006;SDS011;31738;50.188;8.524;2023-03-15T14:25:40;3.42;;;2.13;;
46006;SDS011;31738;50.188;8.524;2023-03-15T14:28:09;7.25;;;2.67;;
46006;SDS011;31738;50.188;8.524;2023-03-15T14:30:39;4.00;;;1.85;;
46006;SDS011;31738;50.188;8.524;2023-03-15T14:33:05;2.22;;;1.70;;
46006;SDS011;31738;50.188;8.524;2023-03-15T14:40:38;3.05;;;2.13;;
46006;SDS011;31738;50.188;8.524;2023-03-15T14:43:05;4.47;;;1.95;;
46006;SDS011;31738;50.188;8.524;2023-03-15T14:45:32;2.80;;;1.85;;
46006;SDS011;31738;50.188;8.524;2023-03-15T14:48:32;3.85;;;1.83;;
46006;SDS011;31738;50.188;8.524;2023-03-15T14:50:52;3.45;;;1.90;;
46006;SDS011;31738;50.188;8.524;2023-03-15T14:53:22;4.10;;;1.85;;
46006;SDS011;31738;50.188;8.524;2023-03-15T14:55:50;6.45;;;2.00;;
46006;SDS011;31738;50.188;8.524;2023-03-15T14:58:17;3.17;;;1.92;;
46006;SDS011;31738;50.188;8.524;2023-03-15T15:00:52;4.50;;;2.05;;
46006;SDS011;31738;50.188;8.524;2023-03-15T15:03:31;4.07;;;2.03;;
46006;SDS011;31738;50.188;8.524;2023-03-15T15:06:02;4.60;;;1.83;;
46006;SDS011;31738;50.188;8.524;2023-03-15T15:08:33;3.35;;;1.58;;
46006;SDS011;31738;50.188;8.524;2023-03-15T15:11:08;5.40;;;2.20;;
46006;SDS011;31738;50.188;8.524;2023-03-15T15:13:35;6.30;;;1.77;;
46006;SDS011;31738;50.188;8.524;2023-03-15T15:16:01;4.13;;;1.92;;
46006;SDS011;31738;50.188;8.524;2023-03-15T15:21:23;5.15;;;1.88;;
46006;SDS011;31738;50.188;8.524;2023-03-15T15:23:51;3.72;;;1.52;;
46006;SDS011;31738;50.188;8.524;2023-03-15T15:26:18;3.53;;;1.50;;
46006;SDS011;31738;50.188;8.524;2023-03-15T15:28:49;3.75;;;1.60;;
46006;SDS011;31738;50.188;8.524;2023-03-15T15:31:16;2.33;;;1.05;;
46006;SDS011;31738;50.188;8.524;2023-03-15T15:33:43;5.18;;;1.23;;
46006;SDS011;31738;50.188;8.524;2023-03-15T15:36:18;3.75;;;1.30;;
46006;SDS011;31738;50.188;8.524;2023-03-15T15:38:47;5.45;;;1.38;;
46006;SDS011;31738;50.188;8.524;2023-03-15T15:44:41;4.43;;;1.20;;
46006;SDS011;31738;50.188;8.524;2023-03-15T15:47:10;3.50;;;1.60;;
46006;SDS011;31738;50.188;8.524;2023-03-15T15:49:36;2.92;;;1.27;;
46006;SDS011;31738;50.188;8.524;2023-03-15T15:52:01;4.22;;;1.38;;
46006;SDS011;31738;50.188;8.524;2023-03-15T15:54:28;4.20;;;1.40;;
46006;SDS011;31738;50.188;8.524;2023-03-15T15:56:57;3.70;;;1.50;;
46006;SDS011;31738;50.188;8.524;2023-03-15T15:59:23;3.70;;;1.70;;
46006;SDS011;31738;50.188;8.524;2023-03-15T16:01:50;5.43;;;1.70;;
46006;SDS011;31738;50.188;8.524;2023-03-15T16:04:16;5.40;;;1.70;;
46006;SDS011;31738;50.188;8.524;2023-03-15T16:06:43;5.55;;;1.70;;
46006;SDS011;31738;50.188;8.524;2023-03-15T16:09:12;4.55;;;1.52;;
46006;SDS011;31738;50.188;8.524;2023-03-15T16:11:41;5.10;;;1.75;;
46006;SDS011;31738;50.188;8.524;2023-03-15T16:14:08;8.88;;;1.85;;
46006;SDS011;31738;50.188;8.524;2023-03-15T16:16:35;5.43;;;1.83;;
46006;SDS011;31738;50.188;8.524;2023-03-15T16:19:00;3.65;;;1.63;;
46006;SDS011;31738;50.188;8.524;2023-03-15T16:21:28;5.57;;;1.73;;
46006;SDS011;31738;50.188;8.524;2023-03-15T16:24:27;4.18;;;1.70;;